Estación Meteorológica Peña el Pijo (Robertgarden) [ 08/22/19 15:38:08 CEST ]

Fecha Hora Presion(HPa) Temp (°C) Humedad % Rocio (°C) Viento ( m/s) Direccion Lluvia 1Hora(mm) Lluvia 24H(mm) LLuvia Total(mm)
2019-Feb-23 01:01:43 1019.300 3.3 54 -5.2         183.37
2019-Feb-23 02:03:10 1018.800 3.1 55 -5.1         183.37
2019-Feb-23 03:01:37 1018.500 2.6 57 -5.1         183.37
2019-Feb-23 04:01:57 1018.100 2.8 57 -4.9         183.37
2019-Feb-23 05:01:43 1018.100 2.6 56 -5.3         183.37
2019-Feb-23 06:01:50 1017.900 2.1 57 -5.5         183.37
2019-Feb-23 07:01:48 1018.100 0.9 61 -5.8         183.37
2019-Feb-23 08:01:46 1018.300 0.9 61 -5.8         183.37
2019-Feb-23 09:01:58 1018.600 3.2 59 -4.1         183.37
2019-Feb-23 10:01:47 1018.700 10.9 41 -1.9         183.37
2019-Feb-23 11:01:52 1018.300 17.9 26 -2.1         183.37
2019-Feb-23 12:01:48 1018.100 20.4 20 -3.3         183.37
2019-Feb-23 13:01:48 1017.400 20.3 16 -6.9         183.37
2019-Feb-23 14:01:51 1016.600 21.8 16 -5.8         183.37
2019-Feb-23 15:01:40 1016.000 22.9 15 -5.7         183.37
2019-Feb-23 16:01:38 1015.500 22.1 13 -8.2         183.37
2019-Feb-23 17:01:34 1015.400 20.6 16 -6.7         183.37
2019-Feb-23 18:01:33 1015.400 18.1 18 -7.0         183.37
2019-Feb-23 19:01:42 1015.900 14.4 25 -5.6         183.37
2019-Feb-23 20:01:38 1016.600 10.1 34 -5.2         183.37
2019-Feb-23 21:01:48 1016.800 8.3 38 -5.3         183.37
2019-Feb-23 22:01:44 1017.500 6.6 42 -5.5         183.37
2019-Feb-23 23:01:39 1017.600 5.1 45 -6.0         183.37

Temperatura Máxima:22°    Temperatura Mínima:
Presión Máxima:1019.300 Hpa    Presión Mínima:1015.400 Hpa


Volver